createdAt,value
2022-10-12T00:01:37.980Z,101335.72
2022-10-12T00:04:05.945Z,101333.47
2022-10-12T00:06:33.826Z,101331.94
2022-10-12T00:09:01.772Z,101333.25
2022-10-12T00:11:30.472Z,101337.50
2022-10-12T00:14:00.188Z,101343.25
2022-10-12T00:16:31.158Z,101333.22
2022-10-12T00:19:00.126Z,101338.00
2022-10-12T00:21:29.852Z,101338.28
2022-10-12T00:23:58.823Z,101338.50
2022-10-12T00:26:28.045Z,101348.53
2022-10-12T00:28:58.175Z,101352.50
2022-10-12T00:31:28.576Z,101351.22
2022-10-12T00:33:57.012Z,101343.75
2022-10-12T00:36:27.218Z,101349.25
2022-10-12T00:38:56.888Z,101344.00
2022-10-12T00:41:27.520Z,101346.53
2022-10-12T00:43:58.505Z,101344.03
2022-10-12T00:46:32.448Z,101343.53
2022-10-12T00:49:08.907Z,101340.25
2022-10-12T00:51:38.707Z,101343.03
2022-10-12T00:54:13.289Z,101335.53
2022-10-12T00:56:45.089Z,101340.28
2022-10-12T00:59:20.533Z,101339.78
2022-10-12T01:01:50.917Z,101338.78
2022-10-12T01:04:18.972Z,101339.28
2022-10-12T01:06:46.940Z,101337.31
2022-10-12T01:09:15.573Z,101335.28
2022-10-12T01:11:43.427Z,101335.06
2022-10-12T01:14:11.751Z,101339.78
2022-10-12T01:16:47.592Z,101340.28
2022-10-12T01:19:33.713Z,101337.81
2022-10-12T01:22:04.282Z,101332.31
2022-10-12T01:24:42.932Z,101339.03
2022-10-12T01:27:25.877Z,101341.31
2022-10-12T01:30:14.651Z,101334.28
2022-10-12T01:33:02.204Z,101338.06
2022-10-12T01:35:38.428Z,101338.78
2022-10-12T01:38:14.914Z,101336.78
2022-10-12T01:40:49.290Z,101332.28
2022-10-12T01:43:18.441Z,101325.53
2022-10-12T01:45:47.973Z,101333.31
2022-10-12T01:48:16.705Z,101334.03
2022-10-12T01:50:50.617Z,101328.53
2022-10-12T01:53:28.968Z,101333.53
2022-10-12T01:56:06.473Z,101334.06
2022-10-12T01:58:47.343Z,101331.06
2022-10-12T02:01:24.858Z,101321.03
2022-10-12T02:04:01.622Z,101333.31
2022-10-12T02:06:36.444Z,101326.28
2022-10-12T02:09:08.821Z,101315.03
2022-10-12T02:11:40.346Z,101323.28
2022-10-12T02:14:12.172Z,101318.03
2022-10-12T02:16:46.881Z,101315.28
2022-10-12T02:19:20.481Z,101313.28
2022-10-12T02:21:50.003Z,101313.28
2022-10-12T02:24:19.791Z,101306.03
2022-10-12T02:26:50.178Z,101313.78
2022-10-12T02:29:23.021Z,101302.53
2022-10-12T02:31:57.391Z,101315.53
2022-10-12T02:34:32.731Z,101305.53
2022-10-12T02:37:06.666Z,101300.53
2022-10-12T02:39:41.051Z,101302.28
2022-10-12T02:42:13.445Z,101294.78
2022-10-12T02:44:44.270Z,101300.78
2022-10-12T02:47:15.375Z,101303.28
2022-10-12T02:49:45.500Z,101289.25
2022-10-12T02:52:13.560Z,101297.25
2022-10-12T02:54:41.550Z,101288.00
2022-10-12T02:57:09.557Z,101285.00
2022-10-12T02:59:37.697Z,101290.75
2022-10-12T03:02:05.722Z,101274.53
2022-10-12T03:04:34.969Z,101289.75
2022-10-12T03:07:02.925Z,101285.78
2022-10-12T03:09:31.207Z,101287.03
2022-10-12T03:11:59.162Z,101280.53
2022-10-12T03:14:27.679Z,101282.78
2022-10-12T03:16:55.665Z,101281.03
2022-10-12T03:19:23.654Z,101275.75
2022-10-12T03:21:52.989Z,101280.78
2022-10-12T03:24:21.815Z,101286.00
2022-10-12T03:26:49.794Z,101288.53
2022-10-12T03:29:17.728Z,101286.53
2022-10-12T03:31:45.706Z,101291.03
2022-10-12T03:34:13.715Z,101285.25
2022-10-12T03:36:41.653Z,101279.75
2022-10-12T03:39:11.925Z,101284.28
2022-10-12T03:41:39.811Z,101287.25
2022-10-12T03:44:07.770Z,101295.28
2022-10-12T03:46:35.699Z,101288.25
2022-10-12T03:49:03.678Z,101286.78
2022-10-12T03:51:31.596Z,101288.00
2022-10-12T03:53:59.480Z,101291.78
2022-10-12T03:56:28.719Z,101289.28
2022-10-12T03:58:56.660Z,101286.78
2022-10-12T04:01:25.643Z,101296.25
2022-10-12T04:03:53.820Z,101293.28
2022-10-12T04:06:21.772Z,101296.03
2022-10-12T04:08:51.041Z,101297.03
2022-10-12T04:11:20.209Z,101293.28
2022-10-12T04:13:49.888Z,101292.00
2022-10-12T04:16:17.727Z,101292.28
2022-10-12T04:18:45.755Z,101301.53
2022-10-12T04:21:15.785Z,101303.03
2022-10-12T04:23:44.081Z,101297.03
2022-10-12T04:26:12.221Z,101296.28
2022-10-12T04:28:40.236Z,101310.53
2022-10-12T04:31:09.614Z,101304.50
2022-10-12T04:33:37.570Z,101304.78
2022-10-12T04:36:05.808Z,101308.53
2022-10-12T04:38:33.804Z,101307.25
2022-10-12T04:41:01.798Z,101296.25
2022-10-12T04:43:29.751Z,101294.22
2022-10-12T04:45:58.698Z,101299.72
2022-10-12T04:48:28.955Z,101299.94
2022-10-12T04:50:57.041Z,101282.44
2022-10-12T04:53:25.061Z,101299.94
2022-10-12T04:55:52.983Z,101300.19
2022-10-12T04:58:20.957Z,101302.41
2022-10-12T05:00:49.623Z,101303.41
2022-10-12T05:03:17.541Z,101304.13
2022-10-12T05:05:47.021Z,101309.31
2022-10-12T05:08:15.080Z,101310.31
2022-10-12T05:10:43.372Z,101308.84
2022-10-12T05:13:11.317Z,101315.31
2022-10-12T05:15:39.257Z,101306.81
2022-10-12T05:18:07.415Z,101303.06
2022-10-12T05:20:35.355Z,101307.00
2022-10-12T05:23:04.808Z,101310.25
2022-10-12T05:25:35.147Z,101304.75
2022-10-12T05:28:03.316Z,101308.28
2022-10-12T05:30:31.484Z,101299.25
2022-10-12T05:32:59.524Z,101302.78
2022-10-12T05:35:27.568Z,101302.25
2022-10-12T05:37:55.463Z,101306.72
2022-10-12T05:40:24.849Z,101304.72
2022-10-12T05:42:52.771Z,101303.97
2022-10-12T05:45:20.721Z,101302.25
2022-10-12T05:47:48.812Z,101303.63
2022-10-12T05:50:16.961Z,101308.69
2022-10-12T05:52:45.665Z,101303.44
2022-10-12T05:55:13.727Z,101304.69
2022-10-12T05:57:43.025Z,101316.41
2022-10-12T06:00:11.644Z,101314.16
2022-10-12T06:02:40.078Z,101314.94
2022-10-12T06:05:08.657Z,101316.69
2022-10-12T06:07:36.565Z,101320.44
2022-10-12T06:10:05.183Z,101318.44
2022-10-12T06:12:33.654Z,101322.91
2022-10-12T06:15:02.963Z,101315.16
2022-10-12T06:17:30.852Z,101316.16
2022-10-12T06:19:58.866Z,101327.16
2022-10-12T06:22:26.847Z,101318.91
2022-10-12T06:24:54.907Z,101322.44
2022-10-12T06:27:22.876Z,101314.19
2022-10-12T06:29:50.783Z,101315.94
2022-10-12T06:32:20.142Z,101329.69
2022-10-12T06:34:48.133Z,101326.94
2022-10-12T06:37:44.307Z,101322.72
2022-10-12T06:40:05.561Z,101321.75
2022-10-12T06:42:33.472Z,101329.00
2022-10-12T06:45:01.436Z,101326.50
2022-10-12T06:47:30.716Z,101332.03
2022-10-12T06:49:58.648Z,101325.81
2022-10-12T06:52:26.544Z,101325.28
2022-10-12T06:54:54.645Z,101328.00
2022-10-12T06:57:22.595Z,101339.75
2022-10-12T06:59:50.682Z,101329.19
2022-10-12T07:02:18.738Z,101338.63
2022-10-12T07:04:51.971Z,101334.56
2022-10-12T07:07:20.567Z,101337.25
2022-10-12T07:09:48.889Z,101338.47
2022-10-12T07:12:16.790Z,101337.19
2022-10-12T07:14:44.772Z,101335.81
2022-10-12T07:17:12.710Z,101337.31
2022-10-12T07:19:40.625Z,101332.56
2022-10-12T07:22:09.929Z,101344.16
2022-10-12T07:24:37.893Z,101337.38
2022-10-12T07:27:09.729Z,101345.28
2022-10-12T07:29:39.466Z,101348.75
2022-10-12T07:32:08.354Z,101345.81
2022-10-12T07:35:01.036Z,101347.56
2022-10-12T07:37:30.396Z,101352.91
2022-10-12T07:39:58.323Z,101344.16
2022-10-12T07:42:26.284Z,101345.66
2022-10-12T07:44:54.236Z,101351.09
2022-10-12T07:47:22.136Z,101353.16
2022-10-12T07:49:50.640Z,101357.09
2022-10-12T07:52:19.057Z,101344.31
2022-10-12T07:54:48.525Z,101351.38
2022-10-12T07:57:16.433Z,101355.53
2022-10-12T07:59:44.484Z,101356.72
2022-10-12T08:02:13.248Z,101353.38
2022-10-12T08:04:41.279Z,101345.50
2022-10-12T08:07:09.284Z,101359.47
2022-10-12T08:09:37.376Z,101362.38
2022-10-12T08:12:07.291Z,101360.41
2022-10-12T08:14:35.203Z,101371.78
2022-10-12T08:17:03.594Z,101368.78
2022-10-12T08:19:35.314Z,101365.75
2022-10-12T08:22:03.946Z,101371.31
2022-10-12T08:24:31.893Z,101365.06
2022-10-12T08:27:01.569Z,101364.91
2022-10-12T08:29:31.095Z,101365.22
2022-10-12T08:31:59.020Z,101358.03
2022-10-12T08:34:27.111Z,101350.66
2022-10-12T08:36:55.140Z,101344.22
2022-10-12T08:39:23.189Z,101346.31
2022-10-12T08:42:04.640Z,101345.25
2022-10-12T08:45:02.048Z,101346.66
2022-10-12T08:47:38.057Z,101349.31
2022-10-12T08:50:13.531Z,101348.78
2022-10-12T08:52:48.513Z,101346.72
2022-10-12T08:55:26.905Z,101335.19
2022-10-12T08:57:55.093Z,101346.13
2022-10-12T09:00:24.799Z,101344.25
2022-10-12T09:03:04.534Z,101345.34
2022-10-12T09:05:36.154Z,101338.75
2022-10-12T09:08:11.895Z,101340.03
2022-10-12T09:10:46.877Z,101355.69
2022-10-12T09:13:32.022Z,101357.31
2022-10-12T09:16:04.269Z,101347.06
2022-10-12T09:18:41.041Z,101347.59
2022-10-12T09:21:14.729Z,101353.38
2022-10-12T09:23:44.211Z,101354.00
2022-10-12T09:26:16.967Z,101354.53
2022-10-12T09:28:46.497Z,101353.69
2022-10-12T09:31:32.769Z,101354.88
2022-10-12T09:34:04.706Z,101350.06
2022-10-12T09:36:36.282Z,101348.78
2022-10-12T09:39:07.752Z,101347.28
2022-10-12T09:41:38.957Z,101353.09
2022-10-12T09:44:11.936Z,101351.50
2022-10-12T09:46:45.619Z,101356.53
2022-10-12T09:49:13.651Z,101346.03
2022-10-12T09:51:42.794Z,101352.28
2022-10-12T09:54:19.003Z,101350.47
2022-10-12T09:56:51.119Z,101350.00
2022-10-12T09:59:27.133Z,101344.66
2022-10-12T10:02:05.106Z,101351.72
2022-10-12T10:04:33.327Z,101346.19
2022-10-12T10:07:19.834Z,101342.59
2022-10-12T10:09:48.394Z,101338.53
2022-10-12T10:12:24.976Z,101347.63
2022-10-12T10:14:56.557Z,101338.16
2022-10-12T10:17:27.933Z,101345.47
2022-10-12T10:19:57.809Z,101342.50
2022-10-12T10:22:26.728Z,101331.53
2022-10-12T10:25:00.147Z,101330.00
2022-10-12T10:27:36.919Z,101330.16
2022-10-12T10:30:30.025Z,101330.63
2022-10-12T10:33:15.467Z,101330.78
2022-10-12T10:35:55.970Z,101334.47
2022-10-12T10:38:24.192Z,101328.84
2022-10-12T10:40:53.389Z,101330.91
2022-10-12T10:43:25.757Z,101329.47
2022-10-12T10:45:56.985Z,101332.91
2022-10-12T10:48:30.631Z,101325.38
2022-10-12T10:51:01.976Z,101331.59
2022-10-12T10:53:33.178Z,101332.66
2022-10-12T10:56:06.719Z,101329.25
2022-10-12T10:58:38.623Z,101324.59
2022-10-12T11:01:16.515Z,101320.44
2022-10-12T11:03:55.822Z,101326.28
2022-10-12T11:06:34.450Z,101320.50
2022-10-12T11:09:06.022Z,101323.91
2022-10-12T11:11:37.762Z,101322.22
2022-10-12T11:14:13.947Z,101316.44
2022-10-12T11:16:46.799Z,101317.47
2022-10-12T11:19:32.379Z,101320.38
2022-10-12T11:22:04.350Z,101315.94
2022-10-12T11:24:37.398Z,101307.28
2022-10-12T11:27:12.490Z,101306.97
2022-10-12T11:29:40.661Z,101302.63
2022-10-12T11:32:22.641Z,101297.53
2022-10-12T11:34:56.139Z,101296.47
2022-10-12T11:37:39.369Z,101288.41
2022-10-12T11:40:17.019Z,101293.09
2022-10-12T11:42:44.964Z,101279.06
2022-10-12T11:45:21.740Z,101273.69
2022-10-12T11:47:54.983Z,101279.28
2022-10-12T11:50:31.274Z,101281.81
2022-10-12T11:53:03.237Z,101268.84
2022-10-12T11:55:42.915Z,101273.06
2022-10-12T11:58:14.113Z,101266.25
2022-10-12T12:00:58.966Z,101263.38
2022-10-12T12:03:34.272Z,101255.16
2022-10-12T12:06:50.381Z,101270.53
2022-10-12T12:09:40.414Z,101253.91
2022-10-12T12:12:17.281Z,101254.13
2022-10-12T12:15:07.224Z,101241.72
2022-10-12T12:17:36.598Z,101247.97
2022-10-12T12:20:43.724Z,101243.22
2022-10-12T12:23:21.163Z,101239.63
2022-10-12T12:26:06.417Z,101232.69
2022-10-12T12:28:35.338Z,101224.13
2022-10-12T12:31:06.808Z,101230.31
2022-10-12T12:33:38.472Z,101219.97
2022-10-12T12:36:09.078Z,101216.91
2022-10-12T12:38:39.123Z,101214.53
2022-10-12T12:41:12.991Z,101205.22
2022-10-12T12:44:02.598Z,101203.44
2022-10-12T12:46:49.177Z,101203.31
2022-10-12T12:49:29.295Z,101203.47
2022-10-12T12:51:59.702Z,101203.75
2022-10-12T12:54:28.577Z,101208.59
2022-10-12T12:57:23.295Z,101199.19
2022-10-12T13:00:20.010Z,101194.16
2022-10-12T13:03:05.198Z,101197.81
2022-10-12T13:06:06.203Z,101198.09
2022-10-12T13:08:48.910Z,101196.59
2022-10-12T13:11:47.077Z,101206.78
2022-10-12T13:14:31.545Z,101198.16
2022-10-12T13:20:01.962Z,101189.78
2022-10-12T13:22:34.145Z,101197.22
2022-10-12T13:25:06.412Z,101190.25
2022-10-12T13:27:40.301Z,101195.81
2022-10-12T13:30:21.557Z,101198.09
2022-10-12T13:32:54.681Z,101197.66
2022-10-12T13:35:32.438Z,101194.75
2022-10-12T13:38:02.920Z,101193.81
2022-10-12T13:40:34.464Z,101191.09
2022-10-12T13:43:19.912Z,101190.47
2022-10-12T13:45:50.238Z,101183.00
2022-10-12T13:48:39.845Z,101178.13
2022-10-12T13:51:23.628Z,101178.81
2022-10-12T13:53:51.636Z,101177.97
2022-10-12T13:56:21.933Z,101178.94
2022-10-12T13:58:53.358Z,101177.91
2022-10-12T14:01:22.785Z,101178.09
2022-10-12T14:03:50.805Z,101177.28
2022-10-12T14:06:27.079Z,101171.72
2022-10-12T14:08:56.912Z,101176.44
2022-10-12T14:11:26.273Z,101174.34
2022-10-12T14:13:54.578Z,101167.41
2022-10-12T14:16:23.957Z,101165.94
2022-10-12T14:18:52.094Z,101160.03
2022-10-12T14:21:23.870Z,101165.78
2022-10-12T14:23:54.836Z,101156.50
2022-10-12T14:26:30.002Z,101160.50
2022-10-12T14:29:00.427Z,101159.31
2022-10-12T14:31:52.055Z,101161.09
2022-10-12T14:34:35.127Z,101166.53
2022-10-12T14:37:04.712Z,101166.97
2022-10-12T14:39:33.308Z,101159.91
2022-10-12T14:42:03.413Z,101161.34
2022-10-12T14:44:43.503Z,101165.84
2022-10-12T14:47:19.114Z,101147.81
2022-10-12T14:49:49.108Z,101139.09
2022-10-12T14:52:23.199Z,101141.16
2022-10-12T14:54:52.684Z,101142.03
2022-10-12T14:57:22.180Z,101141.16
2022-10-12T14:59:50.564Z,101129.63
2022-10-12T15:02:23.296Z,101137.47
2022-10-12T15:04:51.318Z,101143.97
2022-10-12T15:07:21.393Z,101141.91
2022-10-12T15:09:50.589Z,101148.25
2022-10-12T15:12:20.504Z,101139.22
2022-10-12T15:14:49.313Z,101136.00
2022-10-12T15:17:20.858Z,101138.81
2022-10-12T15:19:51.026Z,101135.56
2022-10-12T15:22:21.483Z,101130.53
2022-10-12T15:24:50.579Z,101129.94
2022-10-12T15:27:18.814Z,101124.50
2022-10-12T15:29:48.054Z,101126.09
2022-10-12T15:32:17.729Z,101120.22
2022-10-12T15:34:47.465Z,101115.84
2022-10-12T15:37:15.668Z,101110.78
2022-10-12T15:39:44.192Z,101113.72
2022-10-12T15:42:12.862Z,101118.69
2022-10-12T15:44:41.714Z,101118.06
2022-10-12T15:47:11.287Z,101119.47
2022-10-12T15:49:39.654Z,101124.88
2022-10-12T15:52:11.384Z,101122.00
2022-10-12T15:54:39.297Z,101130.88
2022-10-12T15:57:08.087Z,101124.50
2022-10-12T15:59:36.102Z,101122.69
2022-10-12T16:02:04.142Z,101128.81
2022-10-12T16:04:32.285Z,101119.03
2022-10-12T16:07:01.225Z,101130.56
2022-10-12T16:09:30.440Z,101124.63
2022-10-12T16:11:58.321Z,101115.81
2022-10-12T16:14:26.954Z,101116.72
2022-10-12T16:16:54.898Z,101114.06
2022-10-12T16:19:22.841Z,101104.34
2022-10-12T16:21:51.018Z,101104.84
2022-10-12T16:24:19.035Z,101110.56
2022-10-12T16:26:49.813Z,101103.78
2022-10-12T16:29:17.833Z,101104.78
2022-10-12T16:31:45.831Z,101103.56
2022-10-12T16:34:14.106Z,101104.59
2022-10-12T16:36:42.047Z,101097.59
2022-10-12T16:39:09.996Z,101098.38
2022-10-12T16:41:38.066Z,101098.81
2022-10-12T16:44:07.422Z,101101.78
2022-10-12T16:46:36.856Z,101106.84
2022-10-12T16:49:04.922Z,101107.78
2022-10-12T16:51:32.841Z,101108.91
2022-10-12T16:54:00.793Z,101104.66
2022-10-12T16:56:28.801Z,101100.38
2022-10-12T16:58:56.801Z,101092.41
2022-10-12T17:01:26.102Z,101098.72
2022-10-12T17:03:54.735Z,101102.97
2022-10-12T17:06:22.777Z,101099.63
2022-10-12T17:08:50.788Z,101097.56
2022-10-12T17:11:18.816Z,101102.59
2022-10-12T17:13:49.306Z,101105.53
2022-10-12T17:16:36.135Z,101101.03
2022-10-12T17:19:05.463Z,101098.59
2022-10-12T17:21:33.834Z,101109.50
2022-10-12T17:24:03.016Z,101113.53
2022-10-12T17:26:30.941Z,101108.69
2022-10-12T17:28:58.868Z,101116.09
2022-10-12T17:31:26.971Z,101114.22
2022-10-12T17:33:55.167Z,101117.53
2022-10-12T17:36:28.248Z,101119.19
2022-10-12T17:38:57.827Z,101118.38
2022-10-12T17:41:26.516Z,101118.53
2022-10-12T17:43:54.918Z,101122.97
2022-10-12T17:46:23.050Z,101122.75
2022-10-12T17:48:51.655Z,101131.09
2022-10-12T17:51:19.638Z,101124.06
2022-10-12T17:53:48.919Z,101121.28
2022-10-12T17:56:16.937Z,101116.25
2022-10-12T17:58:45.096Z,101120.38
2022-10-12T18:01:15.395Z,101128.00
2022-10-12T18:03:46.389Z,101129.31
2022-10-12T18:06:16.724Z,101128.91
2022-10-12T18:08:45.444Z,101128.72
2022-10-12T18:11:15.945Z,101127.66
2022-10-12T18:13:48.061Z,101131.53
2022-10-12T18:16:17.535Z,101124.00
2022-10-12T18:18:45.730Z,101127.13
2022-10-12T18:21:14.709Z,101126.53
2022-10-12T18:23:42.836Z,101126.66
2022-10-12T18:26:12.749Z,101134.22
2022-10-12T18:28:43.065Z,101137.16
2022-10-12T18:31:17.244Z,101129.94
2022-10-12T18:33:45.159Z,101128.63
2022-10-12T18:36:13.795Z,101131.81
2022-10-12T18:38:42.374Z,101134.91
2022-10-12T18:41:12.240Z,101132.69
2022-10-12T18:43:40.262Z,101132.69
2022-10-12T18:46:11.432Z,101135.81
2022-10-12T18:48:39.896Z,101135.97
2022-10-12T18:51:09.749Z,101130.41
2022-10-12T18:53:37.714Z,101123.56
2022-10-12T18:56:06.123Z,101128.81
2022-10-12T18:58:34.675Z,101123.81
2022-10-12T19:01:02.657Z,101122.88
2022-10-12T19:03:32.134Z,101114.00
2022-10-12T19:06:05.021Z,101117.31
2022-10-12T19:08:33.005Z,101118.47
2022-10-12T19:11:00.961Z,101114.03
2022-10-12T19:13:28.857Z,101117.50
2022-10-12T19:15:56.800Z,101122.47
2022-10-12T19:18:24.710Z,101114.66
2022-10-12T19:20:54.053Z,101107.47
2022-10-12T19:23:22.065Z,101105.72
2022-10-12T19:25:50.059Z,101115.66
2022-10-12T19:28:17.973Z,101111.91
2022-10-12T19:30:45.948Z,101107.38
2022-10-12T19:33:13.976Z,101106.56
2022-10-12T19:35:41.977Z,101121.66
2022-10-12T19:38:11.256Z,101116.91
2022-10-12T19:40:39.207Z,101115.66
2022-10-12T19:43:07.656Z,101123.56
2022-10-12T19:45:40.069Z,101120.59
2022-10-12T19:48:08.421Z,101129.97
2022-10-12T19:50:36.492Z,101130.13
2022-10-12T19:53:04.594Z,101126.72
2022-10-12T19:55:34.474Z,101122.69
2022-10-12T19:58:02.717Z,101116.41
2022-10-12T20:00:33.214Z,101102.31
2022-10-12T20:03:01.604Z,101109.34
2022-10-12T20:05:29.694Z,101124.50
2022-10-12T20:07:57.741Z,101129.63
2022-10-12T20:10:25.727Z,101133.69
2022-10-12T20:12:55.009Z,101132.50
2022-10-12T20:15:23.074Z,101122.41
2022-10-12T20:17:50.950Z,101124.56
2022-10-12T20:20:19.251Z,101115.72
2022-10-12T20:22:47.365Z,101125.06
2022-10-12T20:25:15.580Z,101124.94
2022-10-12T20:27:43.607Z,101130.28
2022-10-12T20:30:13.802Z,101130.91
2022-10-12T20:32:41.773Z,101134.78
2022-10-12T20:35:10.039Z,101138.63
2022-10-12T20:37:38.222Z,101138.94
